Time;durP1;ratioP1;P1;durP2;ratioP2;P2;SDS_P1;SDS_P2;PMS_P1;PMS_P2;Temp;Humidity;BMP_temperature;BMP_pressure;BME280_temperature;BME280_humidity;BME280_pressure;Samples;Min_cycle;Max_cycle;Signal;HPM_P1;HPM_P2
2021/12/07 00:01:54;;;;;;;5.85;5.25;;;4.50;95.40;;;;;;5057131;28;20055;-80
2021/12/07 00:04:20;;;;;;;7.35;6.30;;;4.60;95.50;;;;;;5058614;28;20108;-79
2021/12/07 00:06:46;;;;;;;6.03;5.40;;;4.60;95.70;;;;;;5058336;28;20075;-79
2021/12/07 00:09:15;;;;;;;6.47;5.55;;;4.60;95.30;;;;;;5058126;28;20053;-79
2021/12/07 00:11:41;;;;;;;6.95;5.63;;;4.60;95.40;;;;;;5058356;28;20147;-79
2021/12/07 00:14:21;;;;;;;6.15;5.55;;;4.70;95.40;;;;;;5057232;28;20036;-80
2021/12/07 00:16:47;;;;;;;6.28;5.47;;;4.70;95.40;;;;;;5057954;28;20541;-79
2021/12/07 00:19:13;;;;;;;6.68;5.57;;;4.70;95.40;;;;;;5057517;28;20036;-80
2021/12/07 00:21:40;;;;;;;5.70;5.10;;;4.70;95.30;;;;;;5058393;28;20024;-80
2021/12/07 00:24:07;;;;;;;6.93;5.75;;;4.70;95.20;;;;;;5057832;28;20032;-79
2021/12/07 00:26:32;;;;;;;6.93;5.75;;;4.70;95.20;;;;;;5057195;28;20071;-79
2021/12/07 00:29:01;;;;;;;6.75;5.63;;;4.70;95.20;;;;;;5057298;28;20028;-78
2021/12/07 00:31:31;;;;;;;7.53;5.35;;;4.70;95.20;;;;;;5057226;28;20476;-78
2021/12/07 00:34:14;;;;;;;5.47;4.72;;;4.70;95.20;;;;;;5056838;28;20025;-78
2021/12/07 00:36:46;;;;;;;5.50;4.47;;;4.60;95.20;;;;;;5053069;28;20036;-79
2021/12/07 00:39:14;;;;;;;6.03;4.57;;;4.50;95.20;;;;;;5056628;28;20029;-78
2021/12/07 00:41:40;;;;;;;5.80;4.88;;;4.50;95.30;;;;;;5070723;28;20067;-78
2021/12/07 00:44:06;;;;;;;5.13;4.63;;;4.60;95.30;;;;;;5067617;28;20032;-78
2021/12/07 00:46:32;;;;;;;5.47;4.72;;;4.60;95.30;;;;;;5056607;28;20060;-78
2021/12/07 00:48:58;;;;;;;5.93;5.30;;;4.60;95.20;;;;;;5056113;28;20029;-78
2021/12/07 00:51:24;;;;;;;6.07;4.97;;;4.60;95.20;;;;;;5056049;28;20120;-78
2021/12/07 00:53:51;;;;;;;6.00;5.38;;;4.60;95.10;;;;;;5056245;28;20103;-78
2021/12/07 00:56:16;;;;;;;6.60;5.30;;;4.50;95.20;;;;;;5055903;28;20025;-77
2021/12/07 00:58:42;;;;;;;6.38;5.47;;;4.40;95.40;;;;;;5056080;28;20511;-77
2021/12/07 01:01:12;;;;;;;6.25;5.43;;;4.20;95.70;;;;;;5056211;28;20112;-79
2021/12/07 01:03:38;;;;;;;6.88;6.07;;;4.10;95.90;;;;;;5056023;28;20036;-79
2021/12/07 01:24:58;;;;;;;6.18;5.50;;;4.00;96.40;;;;;;5053837;28;20130;-77
2021/12/07 01:27:24;;;;;;;6.65;5.32;;;3.90;96.60;;;;;;5054493;28;20025;-78
2021/12/07 01:30:04;;;;;;;6.72;5.72;;;3.90;96.70;;;;;;5054397;28;20091;-78
2021/12/07 01:38:20;;;;;;;6.65;5.93;;;3.70;97.00;;;;;;5065989;28;20033;-77
2021/12/07 02:01:39;;;;;;;9.32;7.80;;;3.60;97.90;;;;;;5051080;28;20035;-79
2021/12/07 02:04:05;;;;;;;8.27;6.95;;;3.60;97.80;;;;;;5053436;28;20028;-79
2021/12/07 02:06:31;;;;;;;9.23;7.95;;;3.70;97.80;;;;;;5053241;28;20021;-79
2021/12/07 02:08:56;;;;;;;10.38;8.38;;;3.70;97.80;;;;;;5053116;28;20033;-80
2021/12/07 02:11:22;;;;;;;9.50;7.90;;;3.70;97.80;;;;;;5053081;28;20031;-80
2021/12/07 02:16:16;;;;;;;10.60;8.95;;;3.70;97.80;;;;;;5053007;28;20486;-79
2021/12/07 02:18:42;;;;;;;10.82;9.15;;;3.70;97.80;;;;;;5052892;28;20060;-79
2021/12/07 02:21:28;;;;;;;12.82;9.57;;;3.70;97.90;;;;;;5053078;28;20025;-78
2021/12/07 02:23:54;;;;;;;12.40;9.65;;;3.70;98.00;;;;;;5051732;28;20017;-78
2021/12/07 02:26:20;;;;;;;11.23;9.45;;;3.70;98.00;;;;;;5052819;28;20099;-79
2021/12/07 02:28:49;;;;;;;10.20;8.60;;;3.70;98.00;;;;;;5053263;28;20033;-79
2021/12/07 02:31:15;;;;;;;11.95;9.90;;;3.70;98.10;;;;;;5054245;28;20033;-80
2021/12/07 02:33:40;;;;;;;12.15;9.75;;;3.80;98.10;;;;;;5051915;28;20048;-79
2021/12/07 02:36:07;;;;;;;12.30;10.38;;;3.80;98.00;;;;;;5053321;28;20029;-80
2021/12/07 02:38:33;;;;;;;13.52;10.80;;;3.90;98.00;;;;;;5051967;28;20119;-80
2021/12/07 02:40:59;;;;;;;12.70;10.95;;;3.90;97.90;;;;;;5052911;28;20043;-80
2021/12/07 02:43:26;;;;;;;15.10;11.05;;;3.90;97.90;;;;;;5054535;28;20025;-80
2021/12/07 02:45:52;;;;;;;15.02;11.77;;;3.90;97.80;;;;;;5055351;28;20032;-81
2021/12/07 02:48:21;;;;;;;15.05;11.75;;;3.90;97.90;;;;;;5051775;28;20021;-81
2021/12/07 02:50:48;;;;;;;12.68;10.98;;;3.90;98.00;;;;;;5042404;28;20029;-81
2021/12/07 02:53:15;;;;;;;15.02;11.82;;;3.90;98.00;;;;;;5051946;28;20112;-81
2021/12/07 02:55:40;;;;;;;14.63;11.55;;;4.00;98.00;;;;;;5052355;28;20028;-80
2021/12/07 02:58:06;;;;;;;14.57;11.70;;;4.00;98.00;;;;;;5051416;28;20056;-80
2021/12/07 03:00:41;;;;;;;14.80;11.57;;;4.00;97.90;;;;;;5051840;28;20454;-81
2021/12/07 03:03:10;;;;;;;15.57;11.77;;;4.10;98.10;;;;;;5052047;28;20083;-80
2021/12/07 03:27:06;;;;;;;15.88;12.38;;;4.40;97.50;;;;;;5026177;28;20029;-81
2021/12/07 03:29:32;;;;;;;16.75;12.68;;;4.40;97.50;;;;;;5043696;28;20057;-80
2021/12/07 03:31:57;;;;;;;16.67;12.98;;;4.40;97.50;;;;;;5046834;28;20033;-81
2021/12/07 03:34:23;;;;;;;15.93;13.65;;;4.40;97.50;;;;;;5026365;28;20021;-81
2021/12/07 03:36:49;;;;;;;20.20;14.73;;;4.50;97.50;;;;;;5022457;28;20484;-81
2021/12/07 03:39:14;;;;;;;18.90;13.10;;;4.50;97.40;;;;;;5025343;28;20034;-81
2021/12/07 03:41:40;;;;;;;15.98;13.70;;;4.60;97.40;;;;;;5022303;28;20026;-80
2021/12/07 03:44:05;;;;;;;14.50;12.32;;;4.60;97.30;;;;;;5029173;28;20033;-81
2021/12/07 03:46:31;;;;;;;16.20;12.27;;;4.70;97.30;;;;;;5053238;28;20108;-81
2021/12/07 03:48:57;;;;;;;16.13;13.10;;;4.70;97.20;;;;;;5053334;28;20452;-81
2021/12/07 03:51:22;;;;;;;20.73;13.40;;;4.80;97.10;;;;;;5052718;28;20055;-81
2021/12/07 03:53:48;;;;;;;16.95;12.73;;;4.80;96.90;;;;;;5052473;28;20083;-77
2021/12/07 03:56:15;;;;;;;18.05;12.43;;;4.80;96.80;;;;;;5052598;28;20079;-77
2021/12/07 03:58:41;;;;;;;17.80;12.23;;;4.70;96.80;;;;;;5052780;28;20041;-78
2021/12/07 04:01:11;;;;;;;17.85;12.60;;;4.70;96.90;;;;;;5053488;28;20048;-79
2021/12/07 04:03:38;;;;;;;18.90;15.05;;;4.70;96.90;;;;;;5053629;28;20029;-79
2021/12/07 04:06:06;;;;;;;17.85;13.52;;;4.70;96.90;;;;;;5056599;28;20427;-79
2021/12/07 04:08:38;;;;;;;17.30;13.88;;;4.70;96.90;;;;;;5057674;28;20056;-80
2021/12/07 04:11:04;;;;;;;18.65;13.18;;;4.70;96.90;;;;;;5057211;28;20035;-80
2021/12/07 04:13:30;;;;;;;21.85;14.20;;;4.70;96.90;;;;;;5057232;28;20101;-79
2021/12/07 04:15:57;;;;;;;17.58;13.15;;;4.70;96.90;;;;;;5056752;28;20539;-80
2021/12/07 04:18:23;;;;;;;19.38;12.60;;;4.70;96.90;;;;;;5056928;28;20045;-80
2021/12/07 04:20:48;;;;;;;15.68;12.48;;;4.70;97.30;;;;;;5056644;28;20055;-80
2021/12/07 04:23:14;;;;;;;18.20;13.18;;;4.70;97.00;;;;;;5056809;28;20082;-79
2021/12/07 04:25:40;;;;;;;17.00;11.70;;;4.80;97.10;;;;;;5052792;28;20016;-79
2021/12/07 04:28:06;;;;;;;17.20;10.88;;;4.80;97.00;;;;;;5072014;28;20036;-79
2021/12/07 04:30:35;;;;;;;15.93;12.00;;;4.90;97.00;;;;;;5078085;28;20013;-78
2021/12/07 04:33:02;;;;;;;15.90;10.98;;;4.90;96.90;;;;;;5056774;28;20036;-78
2021/12/07 04:35:28;;;;;;;15.93;11.05;;;4.90;96.90;;;;;;5051767;28;20109;-78
2021/12/07 04:37:54;;;;;;;17.50;9.48;;;4.90;96.80;;;;;;5056723;28;20033;-79
2021/12/07 04:40:24;;;;;;;19.17;9.85;;;4.90;96.80;;;;;;5057899;28;20053;-79
2021/12/07 04:42:51;;;;;;;16.33;8.05;;;4.90;96.80;;;;;;5056933;28;20021;-78
2021/12/07 04:58:12;;;;;;;19.55;6.90;;;4.80;97.30;;;;;;5056817;28;20060;-77
2021/12/07 05:00:38;;;;;;;13.68;6.80;;;4.80;97.20;;;;;;5057608;28;20021;-77
2021/12/07 05:03:09;;;;;;;17.80;6.82;;;4.80;97.20;;;;;;5057060;28;20021;-78
2021/12/07 05:05:40;;;;;;;16.77;6.55;;;4.80;97.20;;;;;;5057462;28;20045;-78
2021/12/07 05:08:10;;;;;;;14.23;6.28;;;4.80;97.20;;;;;;5053246;28;20033;-78
2021/12/07 05:11:00;;;;;;;15.40;6.72;;;4.80;97.20;;;;;;5057243;28;20052;-80
2021/12/07 05:13:28;;;;;;;14.73;6.60;;;4.80;97.30;;;;;;5055168;28;20025;-79
2021/12/07 05:16:10;;;;;;;12.90;5.63;;;4.80;97.30;;;;;;5057354;28;20032;-79
2021/12/07 05:18:58;;;;;;;22.83;6.45;;;4.80;97.50;;;;;;5056018;28;20047;-79
2021/12/07 05:24:14;;;;;;;12.98;5.22;;;4.70;97.60;;;;;;5054630;28;20040;-79
2021/12/07 05:40:30;;;;;;;14.13;4.43;;;4.50;98.20;;;;;;5056944;28;20022;-82
2021/12/07 05:42:57;;;;;;;14.05;5.32;;;4.50;98.20;;;;;;5056649;28;20111;-81
2021/12/07 05:45:33;;;;;;;22.23;4.72;;;4.50;98.30;;;;;;5051555;28;20028;-80
2021/12/07 05:48:03;;;;;;;10.80;3.97;;;4.50;98.40;;;;;;5055815;28;20039;-79
2021/12/07 05:50:32;;;;;;;16.48;4.20;;;4.50;98.30;;;;;;5051101;28;20021;-79
2021/12/07 05:52:59;;;;;;;17.63;4.35;;;4.60;98.40;;;;;;5054384;28;20028;-79
2021/12/07 05:55:25;;;;;;;20.90;4.32;;;4.60;98.40;;;;;;5055302;28;20113;-78
2021/12/07 05:57:50;;;;;;;18.25;4.82;;;4.60;98.40;;;;;;5055020;28;20128;-82
2021/12/07 06:00:25;;;;;;;17.42;5.22;;;4.60;98.40;;;;;;5055182;28;20390;-82
2021/12/07 06:02:57;;;;;;;20.77;6.05;;;4.60;98.40;;;;;;5055784;28;20055;-80
2021/12/07 06:05:24;;;;;;;22.38;7.63;;;4.60;98.40;;;;;;5054329;28;20025;-82
2021/12/07 06:07:50;;;;;;;22.02;7.57;;;4.50;98.50;;;;;;5055610;28;20031;-83
2021/12/07 06:10:16;;;;;;;24.92;9.75;;;4.50;98.50;;;;;;5055405;28;20068;-83
2021/12/07 06:12:42;;;;;;;30.35;10.15;;;4.40;98.60;;;;;;5055402;28;20029;-84
2021/12/07 06:15:08;;;;;;;33.88;11.07;;;4.40;98.70;;;;;;5055375;28;20423;-83
2021/12/07 06:17:34;;;;;;;27.55;10.70;;;4.40;98.70;;;;;;5054610;28;20357;-84
2021/12/07 06:19:59;;;;;;;35.78;10.80;;;4.40;98.80;;;;;;5055041;28;20031;-84
2021/12/07 06:22:25;;;;;;;29.60;9.63;;;4.40;98.70;;;;;;5055707;28;20466;-85
2021/12/07 06:24:51;;;;;;;28.92;9.90;;;4.40;98.70;;;;;;5070084;28;20020;-83
2021/12/07 06:27:16;;;;;;;26.85;8.13;;;4.50;98.80;;;;;;5076423;28;20040;-83
2021/12/07 06:29:42;;;;;;;25.27;8.75;;;4.50;98.80;;;;;;5060878;28;20064;-84
2021/12/07 06:32:09;;;;;;;18.48;7.65;;;4.40;98.80;;;;;;5054126;28;20162;-84
2021/12/07 06:34:34;;;;;;;22.77;7.50;;;4.40;98.80;;;;;;5053434;28;20036;-84
2021/12/07 06:37:01;;;;;;;27.30;7.43;;;4.40;98.90;;;;;;5053410;28;20045;-81
2021/12/07 06:39:27;;;;;;;21.10;6.65;;;4.40;98.90;;;;;;5053447;28;20037;-79
2021/12/07 06:41:53;;;;;;;23.80;6.38;;;4.40;98.90;;;;;;5054039;28;20037;-80
2021/12/07 06:44:18;;;;;;;31.52;7.53;;;4.40;98.90;;;;;;5053730;28;20029;-81
2021/12/07 06:46:48;;;;;;;22.52;7.93;;;4.40;98.90;;;;;;5047459;28;20361;-85
2021/12/07 06:49:18;;;;;;;19.40;5.88;;;4.50;99.00;;;;;;5057022;28;20104;-86
2021/12/07 06:51:45;;;;;;;21.50;6.47;;;4.50;99.30;;;;;;5056988;28;20055;-84
2021/12/07 06:54:10;;;;;;;23.63;5.32;;;4.60;99.60;;;;;;5053935;28;20017;-79
2021/12/07 06:56:36;;;;;;;19.70;4.45;;;4.60;99.60;;;;;;5049061;28;20526;-82
2021/12/07 06:59:03;;;;;;;22.65;4.85;;;4.70;99.60;;;;;;5050398;28;20495;-78
2021/12/07 07:01:29;;;;;;;22.58;4.90;;;4.80;99.70;;;;;;5054211;28;20091;-82
2021/12/07 07:03:55;;;;;;;22.02;4.13;;;4.90;99.90;;;;;;5053802;28;20021;-85
2021/12/07 07:06:22;;;;;;;17.17;3.42;;;5.00;99.90;;;;;;5052012;28;20021;-80
2021/12/07 07:08:50;;;;;;;20.27;3.90;;;5.10;99.90;;;;;;5050339;28;20033;-82
2021/12/07 07:11:17;;;;;;;13.93;3.78;;;5.10;99.40;;;;;;5051945;28;20082;-83
2021/12/07 07:13:47;;;;;;;15.55;3.10;;;5.10;99.10;;;;;;5051061;28;20032;-80
2021/12/07 07:16:14;;;;;;;18.10;3.58;;;5.10;99.00;;;;;;5047622;28;20036;-86
2021/12/07 07:18:39;;;;;;;18.05;3.17;;;5.00;98.70;;;;;;5050709;28;20045;-82
2021/12/07 07:21:06;;;;;;;14.85;3.60;;;5.00;98.70;;;;;;5031885;28;20389;-83
2021/12/07 07:23:32;;;;;;;13.35;2.65;;;5.00;98.70;;;;;;5049969;28;20041;-82
2021/12/07 07:25:58;;;;;;;13.90;2.92;;;5.00;98.80;;;;;;5049730;28;20021;-83
2021/12/07 07:28:25;;;;;;;17.75;3.80;;;5.10;99.10;;;;;;5038397;28;20051;-84
2021/12/07 07:30:51;;;;;;;11.32;3.50;;;5.10;99.00;;;;;;5051422;28;20040;-84
2021/12/07 07:33:17;;;;;;;17.63;3.22;;;5.20;99.00;;;;;;5054922;28;20033;-81
2021/12/07 07:35:43;;;;;;;16.65;3.85;;;5.20;98.70;;;;;;5055903;28;20039;-82
2021/12/07 07:38:09;;;;;;;17.42;3.47;;;5.20;98.60;;;;;;5052313;28;20214;-78
2021/12/07 07:40:35;;;;;;;17.42;3.10;;;5.20;98.60;;;;;;5053299;28;20048;-78
2021/12/07 07:43:01;;;;;;;17.30;3.45;;;5.20;98.50;;;;;;5055397;28;20090;-77
2021/12/07 07:45:27;;;;;;;15.02;3.40;;;5.30;98.70;;;;;;5055218;28;20033;-77
2021/12/07 07:47:53;;;;;;;12.25;3.15;;;5.30;98.70;;;;;;5056116;28;20040;-77
2021/12/07 07:50:18;;;;;;;20.13;3.25;;;5.40;98.80;;;;;;5054434;28;20029;-77
2021/12/07 07:52:44;;;;;;;14.50;2.85;;;5.50;98.70;;;;;;5048655;28;20033;-78
2021/12/07 07:55:11;;;;;;;13.75;2.78;;;5.50;98.70;;;;;;5036588;28;20040;-78
2021/12/07 07:57:37;;;;;;;7.95;3.00;;;5.50;98.80;;;;;;5036007;28;20053;-77
2021/12/07 08:00:06;;;;;;;11.27;2.85;;;5.60;98.80;;;;;;5036756;28;20456;-77
2021/12/07 08:02:32;;;;;;;13.75;3.38;;;5.70;98.90;;;;;;5041964;28;20021;-76
2021/12/07 08:04:58;;;;;;;10.43;2.60;;;5.80;99.00;;;;;;5054841;28;20499;-77
2021/12/07 08:07:23;;;;;;;15.82;3.10;;;5.90;99.00;;;;;;5055582;28;20468;-77
2021/12/07 08:09:49;;;;;;;15.18;3.15;;;6.10;98.80;;;;;;5051769;28;20021;-76
2021/12/07 08:12:15;;;;;;;10.73;2.97;;;6.10;98.60;;;;;;5041773;28;20026;-81
2021/12/07 08:14:40;;;;;;;10.65;2.53;;;6.20;98.40;;;;;;5040381;28;20384;-74
2021/12/07 08:17:06;;;;;;;16.73;3.58;;;6.30;98.20;;;;;;5042638;28;20053;-77
2021/12/07 08:19:33;;;;;;;15.93;3.08;;;6.60;99.10;;;;;;5056221;28;20029;-75
2021/12/07 08:21:58;;;;;;;13.10;2.50;;;6.70;98.50;;;;;;5062338;28;20036;-77
2021/12/07 08:24:26;;;;;;;14.80;3.40;;;6.70;97.90;;;;;;5056010;28;20401;-76
2021/12/07 08:26:52;;;;;;;19.38;3.95;;;6.60;96.90;;;;;;5056194;28;20472;-76
2021/12/07 08:29:18;;;;;;;21.30;3.67;;;6.50;96.30;;;;;;5054837;28;20052;-77
2021/12/07 08:31:43;;;;;;;14.77;3.38;;;6.40;96.10;;;;;;5051247;28;20057;-76
2021/12/07 08:34:09;;;;;;;9.57;2.58;;;6.30;96.10;;;;;;5054195;28;20416;-77
2021/12/07 08:36:35;;;;;;;13.55;3.00;;;6.20;95.90;;;;;;5054498;28;20040;-75
2021/12/07 08:39:02;;;;;;;14.40;2.92;;;6.10;96.00;;;;;;5040615;28;20079;-76
2021/12/07 08:41:27;;;;;;;22.38;3.78;;;6.10;96.20;;;;;;5036326;28;20029;-74
2021/12/07 08:43:54;;;;;;;12.80;2.95;;;6.00;96.30;;;;;;5055515;28;20047;-75
2021/12/07 08:46:20;;;;;;;14.10;3.33;;;5.90;96.30;;;;;;5055522;28;20048;-75
2021/12/07 08:48:45;;;;;;;12.00;2.30;;;5.90;96.50;;;;;;5054997;28;20472;-79
2021/12/07 08:51:13;;;;;;;15.93;3.42;;;5.90;96.60;;;;;;5055424;28;20032;-75
2021/12/07 08:53:46;;;;;;;17.33;2.85;;;5.90;96.60;;;;;;5044089;28;20052;-75
2021/12/07 09:01:40;;;;;;;16.55;4.22;;;5.70;96.60;;;;;;5053424;28;20040;-75
2021/12/07 09:04:07;;;;;;;23.55;5.15;;;5.70;96.70;;;;;;5028880;28;20038;-75
2021/12/07 09:06:33;;;;;;;13.60;3.70;;;5.80;96.80;;;;;;5015607;28;20514;-75
2021/12/07 09:08:59;;;;;;;17.55;3.88;;;5.80;96.80;;;;;;5028702;28;20468;-76
2021/12/07 09:11:25;;;;;;;20.25;4.28;;;5.80;96.90;;;;;;5029391;28;20087;-75
2021/12/07 09:13:52;;;;;;;16.58;3.55;;;5.90;97.00;;;;;;5027845;28;20025;-76
2021/12/07 09:16:20;;;;;;;15.95;3.70;;;6.00;97.10;;;;;;5032878;28;20033;-76
2021/12/07 09:18:46;;;;;;;13.70;3.58;;;6.10;97.00;;;;;;5049782;28;20433;-75
2021/12/07 09:21:12;;;;;;;19.65;4.60;;;6.20;96.80;;;;;;5054769;28;20051;-74
2021/12/07 09:23:38;;;;;;;16.83;4.45;;;6.10;96.60;;;;;;5050685;28;20037;-74
2021/12/07 09:26:04;;;;;;;20.73;4.63;;;6.10;96.50;;;;;;5055894;28;20453;-74
2021/12/07 09:28:30;;;;;;;21.52;4.93;;;6.10;96.40;;;;;;5054724;28;20025;-74
2021/12/07 09:30:57;;;;;;;17.27;4.30;;;6.00;96.50;;;;;;5049465;28;20047;-74
2021/12/07 09:33:26;;;;;;;20.15;4.95;;;5.90;96.60;;;;;;5045184;28;20088;-74
2021/12/07 09:35:52;;;;;;;23.27;6.65;;;6.00;96.70;;;;;;5048630;28;20385;-75
2021/12/07 09:38:18;;;;;;;28.88;5.30;;;6.00;96.70;;;;;;5046822;28;20091;-75
2021/12/07 09:40:45;;;;;;;20.45;6.18;;;5.90;96.90;;;;;;5052385;28;20033;-76
2021/12/07 09:43:12;;;;;;;21.52;5.55;;;5.90;96.80;;;;;;5052209;28;20032;-75
2021/12/07 09:45:40;;;;;;;23.00;6.38;;;6.00;96.90;;;;;;5052418;28;20032;-76
2021/12/07 09:48:08;;;;;;;20.67;5.18;;;6.00;96.70;;;;;;5052282;28;20060;-76
2021/12/07 09:50:36;;;;;;;35.88;5.65;;;6.00;96.90;;;;;;5052320;28;20029;-76
2021/12/07 09:53:06;;;;;;;25.98;5.78;;;6.00;96.90;;;;;;5052542;28;20040;-75
2021/12/07 09:55:32;;;;;;;23.92;5.72;;;6.00;96.90;;;;;;5052721;28;20037;-75
2021/12/07 09:57:58;;;;;;;23.73;5.47;;;6.00;96.90;;;;;;5051876;28;20102;-75
2021/12/07 10:00:25;;;;;;;18.92;4.50;;;6.00;97.00;;;;;;5037525;28;20030;-75
2021/12/07 10:02:51;;;;;;;24.83;5.28;;;6.10;97.10;;;;;;5033215;28;20030;-76
2021/12/07 10:05:19;;;;;;;18.75;4.60;;;6.10;97.00;;;;;;5033732;28;20476;-76
2021/12/07 10:07:46;;;;;;;22.42;5.13;;;6.20;97.00;;;;;;5034299;28;20040;-76
2021/12/07 10:10:27;;;;;;;19.65;5.43;;;6.30;96.90;;;;;;5034229;28;20100;-76
2021/12/07 10:12:53;;;;;;;22.20;5.20;;;6.30;96.90;;;;;;5034373;28;20045;-76
2021/12/07 10:15:19;;;;;;;25.98;5.40;;;6.30;96.80;;;;;;5034490;28;20032;-75
2021/12/07 10:18:22;;;;;;;26.40;5.38;;;6.40;96.80;;;;;;5035196;28;20037;-75
2021/12/07 10:20:52;;;;;;;20.73;5.15;;;6.50;96.80;;;;;;5051813;28;20021;-75
2021/12/07 10:23:24;;;;;;;16.25;4.43;;;6.60;96.70;;;;;;5036276;28;20060;-75
2021/12/07 10:25:59;;;;;;;20.20;4.65;;;6.70;96.50;;;;;;5033276;28;20039;-75
2021/12/07 10:28:30;;;;;;;16.55;4.82;;;6.70;96.50;;;;;;5033655;28;20025;-76
2021/12/07 10:31:04;;;;;;;18.38;5.40;;;6.80;96.30;;;;;;5033883;28;20039;-76
2021/12/07 10:33:34;;;;;;;19.67;4.50;;;6.90;96.30;;;;;;5033795;28;20044;-76
2021/12/07 10:36:06;;;;;;;23.02;4.63;;;6.90;95.90;;;;;;5033596;28;20507;-76
2021/12/07 10:38:32;;;;;;;28.67;5.53;;;6.90;95.60;;;;;;5041045;28;20036;-76
2021/12/07 10:41:01;;;;;;;18.75;4.25;;;6.80;95.70;;;;;;5053518;28;20021;-76
2021/12/07 10:43:58;;;;;;;19.45;4.65;;;6.90;95.80;;;;;;5053583;28;20032;-76
2021/12/07 10:46:33;;;;;;;14.10;4.30;;;6.90;96.00;;;;;;5053302;28;20488;-76
2021/12/07 10:49:10;;;;;;;19.30;4.63;;;7.00;96.10;;;;;;5053654;28;20055;-76
2021/12/07 10:51:36;;;;;;;27.38;6.15;;;7.10;96.10;;;;;;5044264;28;20033;-76
2021/12/07 10:54:04;;;;;;;17.30;4.45;;;7.20;95.90;;;;;;5032701;28;20543;-77
2021/12/07 10:56:32;;;;;;;18.92;4.38;;;7.20;95.80;;;;;;5036352;28;20042;-76
2021/12/07 10:59:05;;;;;;;19.38;5.30;;;7.20;95.70;;;;;;5045191;28;20049;-76
2021/12/07 11:01:43;;;;;;;22.30;4.13;;;7.30;95.60;;;;;;5042495;28;20032;-80
2021/12/07 11:04:24;;;;;;;19.60;4.65;;;7.30;95.60;;;;;;5051799;28;20028;-74
2021/12/07 11:07:26;;;;;;;18.73;4.13;;;7.30;95.40;;;;;;5050972;28;20036;-76
2021/12/07 11:10:18;;;;;;;16.55;4.55;;;7.40;95.50;;;;;;5019664;28;20033;-77
2021/12/07 11:15:32;;;;;;;17.83;3.90;;;7.40;95.30;;;;;;5033853;28;20087;-78
2021/12/07 11:18:06;;;;;;;15.43;3.28;;;7.50;95.30;;;;;;5055678;28;20053;-77
2021/12/07 11:20:33;;;;;;;17.13;3.75;;;7.50;95.30;;;;;;5055673;28;20037;-78
2021/12/07 11:23:01;;;;;;;16.90;3.92;;;7.50;95.30;;;;;;5054647;28;20136;-77
2021/12/07 11:25:53;;;;;;;14.60;3.35;;;7.50;95.20;;;;;;5055773;28;20033;-74
2021/12/07 11:31:46;;;;;;;12.82;3.35;;;7.60;95.00;;;;;;5050350;28;20102;-78
2021/12/07 11:34:19;;;;;;;19.88;3.58;;;7.60;94.90;;;;;;5050282;28;20127;-77
2021/12/07 11:36:51;;;;;;;15.73;2.75;;;7.60;95.00;;;;;;5051150;28;20032;-82
2021/12/07 11:39:31;;;;;;;14.90;4.38;;;7.60;94.90;;;;;;5054873;28;20099;-77
2021/12/07 11:42:07;;;;;;;11.35;3.15;;;7.60;95.00;;;;;;5055183;28;20040;-78
2021/12/07 11:44:59;;;;;;;13.65;2.75;;;7.70;95.20;;;;;;5052309;28;20159;-77
2021/12/07 11:47:41;;;;;;;15.45;3.63;;;7.70;94.90;;;;;;5044748;28;20036;-80
2021/12/07 11:50:13;;;;;;;19.98;4.05;;;7.80;95.10;;;;;;5054189;28;20032;-81
2021/12/07 11:52:39;;;;;;;17.55;4.00;;;7.80;95.00;;;;;;5048933;28;20090;-79
2021/12/07 11:55:07;;;;;;;18.63;4.53;;;7.70;95.20;;;;;;5053741;28;20648;-79
2021/12/07 11:57:35;;;;;;;14.23;3.47;;;7.70;95.10;;;;;;5040328;28;20041;-77
2021/12/07 12:00:03;;;;;;;12.88;3.40;;;7.70;95.10;;;;;;5052779;28;20028;-79
2021/12/07 12:02:28;;;;;;;20.52;3.83;;;7.70;95.20;;;;;;5053441;28;20036;-88
2021/12/07 12:04:54;;;;;;;15.18;3.78;;;7.80;95.20;;;;;;5045375;28;20034;-79
2021/12/07 12:07:20;;;;;;;12.93;3.25;;;7.90;95.10;;;;;;5051653;28;20037;-78
2021/12/07 12:09:51;;;;;;;19.30;4.22;;;7.90;94.90;;;;;;5053736;28;20044;-82
2021/12/07 12:12:16;;;;;;;19.25;3.00;;;8.00;95.10;;;;;;5038089;28;20037;-79
2021/12/07 12:15:01;;;;;;;11.93;2.95;;;8.00;95.00;;;;;;5042892;28;20410;-78
2021/12/07 12:18:05;;;;;;;8.90;2.97;;;8.10;95.00;;;;;;5054078;28;20380;-77
2021/12/07 12:21:41;;;;;;;13.45;3.10;;;8.10;94.80;;;;;;5043050;28;20033;-77
2021/12/07 12:24:30;;;;;;;13.77;3.40;;;8.20;94.50;;;;;;4994049;28;20491;-78
2021/12/07 12:27:15;;;;;;;12.48;3.42;;;8.20;94.00;;;;;;4994535;28;20034;-78
2021/12/07 12:29:44;;;;;;;11.57;2.90;;;8.30;93.90;;;;;;5011809;28;20072;-78
2021/12/07 12:32:10;;;;;;;17.25;3.08;;;8.30;94.00;;;;;;5030986;28;20097;-78
2021/12/07 12:34:46;;;;;;;18.73;2.90;;;8.40;94.10;;;;;;5035670;28;20083;-79
2021/12/07 12:37:21;;;;;;;14.32;3.00;;;8.40;93.80;;;;;;5035710;28;20460;-77
2021/12/07 12:39:54;;;;;;;15.20;3.35;;;8.40;93.60;;;;;;5036034;28;20152;-78
2021/12/07 12:42:43;;;;;;;13.50;3.40;;;8.40;93.60;;;;;;5037063;28;20018;-78
2021/12/07 12:45:34;;;;;;;15.63;3.20;;;8.40;93.70;;;;;;5050626;28;20039;-77
2021/12/07 12:48:11;;;;;;;14.48;3.42;;;8.40;93.50;;;;;;5054265;28;20035;-77
2021/12/07 12:50:47;;;;;;;17.48;2.70;;;8.40;93.40;;;;;;5041355;28;20432;-77
2021/12/07 12:53:31;;;;;;;15.00;3.10;;;8.40;93.10;;;;;;5025223;28;20037;-77
2021/12/07 12:56:03;;;;;;;12.02;2.55;;;8.40;93.00;;;;;;5054161;28;20053;-77
2021/12/07 12:58:29;;;;;;;16.63;3.22;;;8.50;93.00;;;;;;5054057;28;20517;-77
2021/12/07 13:01:00;;;;;;;15.38;2.83;;;8.50;92.80;;;;;;5054167;28;20112;-77
2021/12/07 13:03:46;;;;;;;13.48;2.13;;;8.40;92.70;;;;;;5056434;28;20033;-75
2021/12/07 13:06:50;;;;;;;15.00;3.35;;;8.40;92.60;;;;;;5057437;28;20415;-77
2021/12/07 13:09:19;;;;;;;16.13;3.22;;;8.50;92.60;;;;;;5053559;28;20119;-77
2021/12/07 13:12:03;;;;;;;9.95;2.63;;;8.40;92.40;;;;;;5053771;28;20029;-77
2021/12/07 13:14:35;;;;;;;13.95;3.25;;;8.40;92.70;;;;;;5053569;28;20029;-78
2021/12/07 13:17:15;;;;;;;15.95;3.58;;;8.40;93.00;;;;;;5054012;28;20049;-78
2021/12/07 13:20:18;;;;;;;13.82;2.88;;;8.40;92.90;;;;;;5053024;28;20043;-78
2021/12/07 13:23:05;;;;;;;11.38;2.58;;;8.50;92.40;;;;;;5052242;28;20025;-77
2021/12/07 13:25:44;;;;;;;12.32;2.80;;;8.50;92.30;;;;;;5052367;28;20070;-79
2021/12/07 13:28:21;;;;;;;11.65;2.97;;;8.40;92.20;;;;;;5051720;28;20021;-80
2021/12/07 13:31:09;;;;;;;9.48;2.20;;;8.40;92.50;;;;;;5049934;28;20079;-80
2021/12/07 13:33:39;;;;;;;15.52;2.38;;;8.40;91.80;;;;;;5053157;28;20032;-82
2021/12/07 13:36:36;;;;;;;13.40;2.58;;;8.30;91.80;;;;;;5053762;28;20372;-88
2021/12/07 13:39:19;;;;;;;15.65;2.78;;;8.30;91.90;;;;;;5049992;28;20036;-80
2021/12/07 13:41:55;;;;;;;10.18;2.30;;;8.20;91.90;;;;;;5050808;28;20025;-86
2021/12/07 13:44:21;;;;;;;13.43;2.55;;;8.10;91.80;;;;;;5048545;28;20519;-83
2021/12/07 13:46:50;;;;;;;11.27;2.28;;;8.10;92.00;;;;;;5037912;28;20117;-82
2021/12/07 13:49:16;;;;;;;16.33;2.83;;;8.00;92.10;;;;;;5034853;28;20026;-78
2021/12/07 13:51:42;;;;;;;17.30;2.70;;;8.00;92.00;;;;;;5034276;28;20021;-78
2021/12/07 13:54:18;;;;;;;10.73;2.40;;;8.00;92.20;;;;;;5034719;28;20108;-78
2021/12/07 13:56:44;;;;;;;13.70;2.33;;;8.00;92.20;;;;;;5034404;28;20044;-78
2021/12/07 13:59:12;;;;;;;14.43;2.72;;;7.90;92.30;;;;;;5052599;28;20041;-77
2021/12/07 14:01:41;;;;;;;10.65;2.38;;;7.90;91.90;;;;;;5062649;28;20085;-76
2021/12/07 14:04:08;;;;;;;12.07;2.97;;;7.90;92.10;;;;;;5036711;28;20029;-75
2021/12/07 14:06:35;;;;;;;13.95;3.58;;;7.90;92.10;;;;;;5049140;28;20048;-76
2021/12/07 14:09:06;;;;;;;14.73;2.90;;;7.80;92.20;;;;;;5052258;28;20032;-76
2021/12/07 14:11:32;;;;;;;10.82;3.28;;;7.70;92.30;;;;;;5052856;28;20365;-78
2021/12/07 14:13:59;;;;;;;16.95;3.15;;;7.70;92.30;;;;;;5028833;28;20037;-77
2021/12/07 14:16:27;;;;;;;13.20;2.90;;;7.70;92.40;;;;;;5020947;28;20026;-77
2021/12/07 14:18:53;;;;;;;13.10;3.30;;;7.60;92.70;;;;;;5026003;28;20104;-77
2021/12/07 14:21:19;;;;;;;17.77;3.33;;;7.60;92.70;;;;;;5034327;28;20105;-78
2021/12/07 14:23:52;;;;;;;10.65;2.83;;;7.50;92.80;;;;;;5033991;28;20484;-78
2021/12/07 14:26:22;;;;;;;;;;;7.50;92.90;;;;;;5034523;28;20026;-78
2021/12/07 14:28:50;;;;;;;16.17;3.83;;;7.50;92.90;;;;;;5033795;28;19912;-79
2021/12/07 14:31:35;;;;;;;10.52;2.80;;;7.50;93.00;;;;;;5034070;28;20043;-78
2021/12/07 14:34:12;;;;;;;13.93;2.75;;;7.40;92.90;;;;;;5033631;28;20028;-79
2021/12/07 14:36:42;;;;;;;12.75;2.92;;;7.40;92.80;;;;;;5034312;28;20029;-80
2021/12/07 14:39:22;;;;;;;11.27;2.72;;;7.30;92.90;;;;;;5034349;28;20064;-77
2021/12/07 14:41:52;;;;;;;13.05;3.15;;;7.30;93.00;;;;;;5033807;28;20028;-76
2021/12/07 14:44:30;;;;;;;13.30;3.05;;;7.20;93.20;;;;;;5033582;28;20025;-76
2021/12/07 14:47:00;;;;;;;15.63;2.97;;;7.20;93.20;;;;;;5033705;28;20036;-76
2021/12/07 14:49:27;;;;;;;14.95;3.00;;;7.20;93.30;;;;;;5033356;28;20037;-77
2021/12/07 14:51:53;;;;;;;12.00;2.75;;;7.10;93.30;;;;;;5033836;28;20037;-77
2021/12/07 14:54:22;;;;;;;11.30;2.70;;;7.10;93.40;;;;;;5033200;28;20029;-77